PWSweather.com
Personal Weather Stations
Station Observations
LABLIDAR
PotenzaIT

PotenzaIT

Lat: 40.6467, Lon: 15.809

Elevation: 2395

Station Type: Oregon WMRS200

Latest ConditionsUpdated 12:11:04 PM GMT+01:01 Monday, Oct 20, 2014
Currently Today's Max Today's Min Today's Average
Temperature 77.9°F25.5°C 78.3°F25.7°C 55.8°F13.2°C 61.9°F16.6°C
Dew Point 48.1°F8.9°C 49.1°F9.5°C 39.2°F4.0°C 42.4°F5.8°C
Winds 2.9 mph NE4.7 kmh NE 4.1 mph NNE6.6 kmh NNE - 0.6 mph 1.0 kmh
Wind Gusts 4.9 mph7.9 kmh 7.8 mph12.6 kmh - -
Humidity 35% 56% 34% 49%
Pressure 27.85 in943.1 mb 27.99 in947.9 mb 27.85 in943.1 mb -
Hour Temp Dew Point Humidity Winds Wind Gusts Pressure Precip Precip Rate Daily Precip Total
12:11 PM 77.9°F25.5°C 48.1°F8.9°C 35% 2.9 mph NE4.7 kmh NE 4.9 mph7.9 kmh 27.85 in943.1 mb 0.00 in0.0 mm 0.00 in/hr0.0 mm/hr 0.00 in0.0 mm
12:06 PM 78.2°F25.7°C 47.9°F8.8°C 34% 1.7 mph NNE2.7 kmh NNE 4.9 mph7.9 kmh 27.85 in943.1 mb 0.00 in0.0 mm 0.00 in/hr0.0 mm/hr 0.00 in0.0 mm
12:01 PM 78.1°F25.6°C 48.4°F9.1°C 35% 0.7 mph NE1.1 kmh NE 4.9 mph7.9 kmh 27.85 in943.1 mb 0.00 in0.0 mm 0.00 in/hr0.0 mm/hr 0.00 in0.0 mm
11:56 AM 78.1°F25.6°C 47.9°F8.8°C 35% 2.8 mph NE4.5 kmh NE 4.9 mph7.9 kmh 27.88 in944.1 mb 0.00 in0.0 mm 0.00 in/hr0.0 mm/hr 0.00 in0.0 mm
11:51 AM 77.8°F25.4°C 48.6°F9.2°C 35% 3.1 mph E5.0 kmh E 6.3 mph10.1 kmh 27.88 in944.1 mb 0.00 in0.0 mm 0.00 in/hr0.0 mm/hr 0.00 in0.0 mm
11:46 AM 77.6°F25.3°C 48.5°F9.2°C 36% 3.1 mph NNE5.0 kmh NNE 6.3 mph10.1 kmh 27.88 in944.1 mb 0.00 in0.0 mm 0.00 in/hr0.0 mm/hr 0.00 in0.0 mm
11:41 AM 78.3°F25.7°C 48.1°F8.9°C 35% 1.3 mph NE2.1 kmh NE 4.7 mph7.6 kmh 27.88 in944.1 mb 0.00 in0.0 mm 0.00 in/hr0.0 mm/hr 0.00 in0.0 mm
11:36 AM 78.1°F25.6°C 48.8°F9.3°C 36% 2.7 mph WNW4.3 kmh WNW 4.9 mph7.9 kmh 27.88 in944.1 mb 0.00 in0.0 mm 0.00 in/hr0.0 mm/hr 0.00 in0.0 mm
11:31 AM 77.7°F25.4°C 48.6°F9.2°C 36% 2.7 mph N4.3 kmh N 5.4 mph8.7 kmh 27.88 in944.1 mb 0.00 in0.0 mm 0.00 in/hr0.0 mm/hr 0.00 in0.0 mm
11:26 AM 77.2°F25.1°C 48.7°F9.3°C 36% 1.3 mph W2.1 kmh W 5.4 mph8.7 kmh 27.88 in944.1 mb 0.00 in0.0 mm 0.00 in/hr0.0 mm/hr 0.00 in0.0 mm
11:21 AM 76.8°F24.9°C 48.6°F9.2°C 37% 2.7 mph ENE4.3 kmh ENE 5.6 mph9.0 kmh 27.88 in944.1 mb 0.00 in0.0 mm 0.00 in/hr0.0 mm/hr 0.00 in0.0 mm
11:16 AM 76.4°F24.7°C 48.7°F9.3°C 37% 3.3 mph NE5.3 kmh NE 5.6 mph9.0 kmh 27.88 in944.1 mb 0.00 in0.0 mm 0.00 in/hr0.0 mm/hr 0.00 in0.0 mm
11:11 AM 75.9°F24.4°C 48.6°F9.2°C 38% 2.4 mph NNE3.9 kmh NNE 4.9 mph7.9 kmh 27.91 in945.1 mb 0.00 in0.0 mm 0.00 in/hr0.0 mm/hr 0.00 in0.0 mm
11:06 AM 75.5°F24.2°C 48.8°F9.3°C 39% 2.1 mph WSW3.4 kmh WSW 3.4 mph5.5 kmh 27.91 in945.1 mb 0.00 in0.0 mm 0.00 in/hr0.0 mm/hr 0.00 in0.0 mm
11:01 AM 75.0°F23.9°C 49.1°F9.5°C 40% 1.8 mph WSW2.9 kmh WSW 4.9 mph7.9 kmh 27.91 in945.1 mb 0.00 in0.0 mm 0.00 in/hr0.0 mm/hr 0.00 in0.0 mm
10:56 AM 74.6°F23.7°C 48.9°F9.4°C 40% 2.7 mph NE4.3 kmh NE 7.2 mph11.6 kmh 27.91 in945.1 mb 0.00 in0.0 mm 0.00 in/hr0.0 mm/hr 0.00 in0.0 mm
10:51 AM 74.1°F23.4°C 49.0°F9.4°C 41% 4.1 mph NNE6.6 kmh NNE 7.8 mph12.6 kmh 27.91 in945.1 mb 0.00 in0.0 mm 0.00 in/hr0.0 mm/hr 0.00 in0.0 mm
10:46 AM 73.7°F23.2°C 48.9°F9.4°C 41% 3.2 mph NNE5.1 kmh NNE 7.8 mph12.6 kmh 27.91 in945.1 mb 0.00 in0.0 mm 0.00 in/hr0.0 mm/hr 0.00 in0.0 mm
10:41 AM 73.1°F22.8°C 48.7°F9.3°C 42% 2.2 mph SSW3.5 kmh SSW 3.4 mph5.5 kmh 27.91 in945.1 mb 0.00 in0.0 mm 0.00 in/hr0.0 mm/hr 0.00 in0.0 mm
10:36 AM 72.6°F22.6°C 48.5°F9.2°C 42% 0.6 mph NNE1.0 kmh NNE 6.5 mph10.5 kmh 27.91 in945.1 mb 0.00 in0.0 mm 0.00 in/hr0.0 mm/hr 0.00 in0.0 mm
10:31 AM 72.1°F22.3°C 48.4°F9.1°C 43% 2.8 mph SE4.5 kmh SE 6.5 mph10.5 kmh 27.91 in945.1 mb 0.00 in0.0 mm 0.00 in/hr0.0 mm/hr 0.00 in0.0 mm
10:26 AM 71.5°F21.9°C 48.3°F9.1°C 43% 2.5 mph SW4.0 kmh SW 4.0 mph6.4 kmh 27.91 in945.1 mb 0.00 in0.0 mm 0.00 in/hr0.0 mm/hr 0.00 in0.0 mm
10:21 AM 71.0°F21.7°C 48.1°F8.9°C 44% 1.9 mph SE3.1 kmh SE 2.9 mph4.7 kmh 27.91 in945.1 mb 0.00 in0.0 mm 0.00 in/hr0.0 mm/hr 0.00 in0.0 mm
10:16 AM 70.5°F21.4°C 47.7°F8.7°C 44% 1.5 mph SSE2.4 kmh SSE 3.6 mph5.8 kmh 27.91 in945.1 mb 0.00 in0.0 mm 0.00 in/hr0.0 mm/hr 0.00 in0.0 mm
10:11 AM 70.0°F21.1°C 47.7°F8.7°C 45% 1.5 mph SSE2.4 kmh SSE 3.6 mph5.8 kmh 27.91 in945.1 mb 0.00 in0.0 mm 0.00 in/hr0.0 mm/hr 0.00 in0.0 mm
10:06 AM 69.5°F20.8°C 47.7°F8.7°C 45% 2.1 mph SSE3.4 kmh SSE 4.3 mph6.9 kmh 27.91 in945.1 mb 0.00 in0.0 mm 0.00 in/hr0.0 mm/hr 0.00 in0.0 mm
10:01 AM 68.9°F20.5°C 47.3°F8.5°C 46% 2.4 mph NE3.9 kmh NE 5.4 mph8.7 kmh 27.91 in945.1 mb 0.00 in0.0 mm 0.00 in/hr0.0 mm/hr 0.00 in0.0 mm
09:56 AM 68.4°F20.2°C 47.2°F8.4°C 46% 2.1 mph SSW3.4 kmh SSW 5.4 mph8.7 kmh 27.91 in945.1 mb 0.00 in0.0 mm 0.00 in/hr0.0 mm/hr 0.00 in0.0 mm
09:51 AM 67.8°F19.9°C 47.0°F8.3°C 47% 1.3 mph SW2.1 kmh SW 3.8 mph6.1 kmh 27.91 in945.1 mb 0.00 in0.0 mm 0.00 in/hr0.0 mm/hr 0.00 in0.0 mm
09:46 AM 67.3°F19.6°C 47.0°F8.3°C 48% 2.2 mph SSW3.5 kmh SSW 3.8 mph6.1 kmh 27.91 in945.1 mb 0.00 in0.0 mm 0.00 in/hr0.0 mm/hr 0.00 in0.0 mm
09:41 AM 66.8°F19.3°C 46.6°F8.1°C 48% Calm Calm 2.7 mph4.3 kmh 27.91 in945.1 mb 0.00 in0.0 mm 0.00 in/hr0.0 mm/hr 0.00 in0.0 mm
09:36 AM 66.3°F19.1°C 46.6°F8.1°C 49% 0.5 mph S0.8 kmh S 4.0 mph6.4 kmh 27.91 in945.1 mb 0.00 in0.0 mm 0.00 in/hr0.0 mm/hr 0.00 in0.0 mm
09:31 AM 65.8°F18.8°C 46.5°F8.1°C 49% 2.7 mph SW4.3 kmh SW 4.0 mph6.4 kmh 27.91 in945.1 mb 0.00 in0.0 mm 0.00 in/hr0.0 mm/hr 0.00 in0.0 mm
09:26 AM 65.3°F18.5°C 46.2°F7.9°C 50% 2.0 mph WSW3.2 kmh WSW 3.8 mph6.1 kmh 27.94 in946.2 mb 0.00 in0.0 mm 0.00 in/hr0.0 mm/hr 0.00 in0.0 mm
09:21 AM 64.7°F18.2°C 45.7°F7.6°C 50% 1.0 mph SW1.6 kmh SW 4.0 mph6.4 kmh 27.94 in946.2 mb 0.00 in0.0 mm 0.00 in/hr0.0 mm/hr 0.00 in0.0 mm
09:16 AM 64.2°F17.9°C 45.7°F7.6°C 51% 1.8 mph SSW2.9 kmh SSW 4.0 mph6.4 kmh 27.94 in946.2 mb 0.00 in0.0 mm 0.00 in/hr0.0 mm/hr 0.00 in0.0 mm
09:11 AM 63.6°F17.6°C 45.4°F7.4°C 51% 0.4 mph S0.6 kmh S 3.8 mph6.1 kmh 27.94 in946.2 mb 0.00 in0.0 mm 0.00 in/hr0.0 mm/hr 0.00 in0.0 mm
09:06 AM 63.1°F17.3°C 45.2°F7.3°C 52% 2.8 mph W4.5 kmh W 3.8 mph6.1 kmh 27.94 in946.2 mb 0.00 in0.0 mm 0.00 in/hr0.0 mm/hr 0.00 in0.0 mm
09:01 AM 62.6°F17.0°C 44.9°F7.2°C 52% 1.1 mph NNE1.8 kmh NNE 2.7 mph4.3 kmh 27.94 in946.2 mb 0.00 in0.0 mm 0.00 in/hr0.0 mm/hr 0.00 in0.0 mm
08:56 AM 62.1°F16.7°C 44.8°F7.1°C 53% 0.4 mph S0.6 kmh S 2.0 mph3.2 kmh 27.94 in946.2 mb 0.00 in0.0 mm 0.00 in/hr0.0 mm/hr 0.00 in0.0 mm
08:51 AM 61.5°F16.4°C 44.3°F6.8°C 53% 1.2 mph S1.9 kmh S 2.7 mph4.3 kmh 27.94 in946.2 mb 0.00 in0.0 mm 0.00 in/hr0.0 mm/hr 0.00 in0.0 mm
08:46 AM 61.0°F16.1°C 43.9°F6.6°C 53% 0.4 mph SSE0.6 kmh SSE 2.7 mph4.3 kmh 27.94 in946.2 mb 0.00 in0.0 mm 0.00 in/hr0.0 mm/hr 0.00 in0.0 mm
08:41 AM 60.5°F15.8°C 43.8°F6.6°C 54% 0.6 mph SE1.0 kmh SE 2.2 mph3.5 kmh 27.94 in946.2 mb 0.00 in0.0 mm 0.00 in/hr0.0 mm/hr 0.00 in0.0 mm
08:36 AM 60.0°F15.6°C 43.3°F6.3°C 54% 1.4 mph SE2.3 kmh SE 2.7 mph4.3 kmh 27.94 in946.2 mb 0.00 in0.0 mm 0.00 in/hr0.0 mm/hr 0.00 in0.0 mm
08:31 AM 59.5°F15.3°C 43.2°F6.2°C 54% 1.3 mph SSE2.1 kmh SSE 2.7 mph4.3 kmh 27.94 in946.2 mb 0.00 in0.0 mm 0.00 in/hr0.0 mm/hr 0.00 in0.0 mm
08:26 AM 59.0°F15.0°C 42.9°F6.1°C 55% Calm Calm 2.0 mph3.2 kmh 27.96 in946.8 mb 0.00 in0.0 mm 0.00 in/hr0.0 mm/hr 0.00 in0.0 mm
08:21 AM 58.6°F14.8°C 42.5°F5.8°C 55% 0.4 mph S0.6 kmh S 2.7 mph4.3 kmh 27.96 in946.8 mb 0.00 in0.0 mm 0.00 in/hr0.0 mm/hr 0.00 in0.0 mm
08:16 AM 58.1°F14.5°C 42.4°F5.8°C 55% 0.8 mph SSE1.3 kmh SSE 2.9 mph4.7 kmh 27.96 in946.8 mb 0.00 in0.0 mm 0.00 in/hr0.0 mm/hr 0.00 in0.0 mm
08:11 AM 57.7°F14.3°C 42.1°F5.6°C 56% 0.4 mph SSE0.6 kmh SSE 2.9 mph4.7 kmh 27.96 in946.8 mb 0.00 in0.0 mm 0.00 in/hr0.0 mm/hr 0.00 in0.0 mm
08:06 AM 57.3°F14.1°C 41.8°F5.4°C 56% Calm Calm 1.1 mph1.8 kmh 27.96 in946.8 mb 0.00 in0.0 mm 0.00 in/hr0.0 mm/hr 0.00 in0.0 mm
08:01 AM 57.0°F13.9°C 41.4°F5.2°C 56% Calm Calm 1.1 mph1.8 kmh 27.96 in946.8 mb 0.00 in0.0 mm 0.00 in/hr0.0 mm/hr 0.00 in0.0 mm
07:56 AM 56.7°F13.7°C 41.2°F5.1°C 56% Calm Calm 1.6 mph2.6 kmh 27.96 in946.8 mb 0.00 in0.0 mm 0.00 in/hr0.0 mm/hr 0.00 in0.0 mm
07:51 AM 56.5°F13.6°C 41.0°F5.0°C 56% 0.5 mph S0.8 kmh S 2.7 mph4.3 kmh 27.96 in946.8 mb 0.00 in0.0 mm 0.00 in/hr0.0 mm/hr 0.00 in0.0 mm
07:46 AM 56.3°F13.5°C 40.8°F4.9°C 56% 1.2 mph SE1.9 kmh SE 2.7 mph4.3 kmh 27.96 in946.8 mb 0.00 in0.0 mm 0.00 in/hr0.0 mm/hr 0.00 in0.0 mm
07:41 AM 56.2°F13.4°C 40.6°F4.8°C 56% Calm Calm -- 27.96 in946.8 mb 0.00 in0.0 mm 0.00 in/hr0.0 mm/hr 0.00 in0.0 mm
07:36 AM 56.1°F13.4°C 40.2°F4.6°C 56% Calm Calm 2.2 mph3.5 kmh 27.96 in946.8 mb 0.00 in0.0 mm 0.00 in/hr0.0 mm/hr 0.00 in0.0 mm
07:31 AM 55.9°F13.3°C 40.0°F4.4°C 55% Calm Calm 2.2 mph3.5 kmh 27.96 in946.8 mb 0.00 in0.0 mm 0.00 in/hr0.0 mm/hr 0.00 in0.0 mm
07:26 AM 55.9°F13.3°C 40.0°F4.4°C 55% 0.7 mph SSE1.1 kmh SSE 2.2 mph3.5 kmh 27.96 in946.8 mb 0.00 in0.0 mm 0.00 in/hr0.0 mm/hr 0.00 in0.0 mm
07:21 AM 55.9°F13.3°C 39.9°F4.4°C 55% Calm Calm -- 27.96 in946.8 mb 0.00 in0.0 mm 0.00 in/hr0.0 mm/hr 0.00 in0.0 mm
07:16 AM 55.8°F13.2°C 39.9°F4.4°C 55% Calm Calm -- 27.96 in946.8 mb 0.00 in0.0 mm 0.00 in/hr0.0 mm/hr 0.00 in0.0 mm
07:11 AM 55.8°F13.2°C 39.9°F4.4°C 55% Calm Calm -- 27.96 in946.8 mb 0.00 in0.0 mm 0.00 in/hr0.0 mm/hr 0.00 in0.0 mm
07:06 AM 55.8°F13.2°C 39.7°F4.3°C 55% Calm Calm -- 27.96 in946.8 mb 0.00 in0.0 mm 0.00 in/hr0.0 mm/hr 0.00 in0.0 mm
07:01 AM 55.8°F13.2°C 39.4°F4.1°C 54% Calm Calm -- 27.96 in946.8 mb 0.00 in0.0 mm 0.00 in/hr0.0 mm/hr 0.00 in0.0 mm
06:56 AM 55.8°F13.2°C 39.4°F4.1°C 54% Calm Calm -- 27.94 in946.2 mb 0.00 in0.0 mm 0.00 in/hr0.0 mm/hr 0.00 in0.0 mm
06:51 AM 55.8°F13.2°C 39.4°F4.1°C 54% Calm Calm -- 27.94 in946.2 mb 0.00 in0.0 mm 0.00 in/hr0.0 mm/hr 0.00 in0.0 mm
06:46 AM 55.8°F13.2°C 39.4°F4.1°C 54% Calm Calm -- 27.94 in946.2 mb 0.00 in0.0 mm 0.00 in/hr0.0 mm/hr 0.00 in0.0 mm
06:41 AM 55.8°F13.2°C 39.4°F4.1°C 54% Calm Calm -- 27.94 in946.2 mb 0.00 in0.0 mm 0.00 in/hr0.0 mm/hr 0.00 in0.0 mm
06:36 AM 55.8°F13.2°C 39.4°F4.1°C 54% Calm Calm -- 27.94 in946.2 mb 0.00 in0.0 mm 0.00 in/hr0.0 mm/hr 0.00 in0.0 mm
06:31 AM 55.9°F13.3°C 39.5°F4.2°C 54% Calm Calm -- 27.94 in946.2 mb 0.00 in0.0 mm 0.00 in/hr0.0 mm/hr 0.00 in0.0 mm
06:26 AM 55.9°F13.3°C 39.6°F4.2°C 54% Calm Calm -- 27.94 in946.2 mb 0.00 in0.0 mm 0.00 in/hr0.0 mm/hr 0.00 in0.0 mm
06:21 AM 55.9°F13.3°C 39.6°F4.2°C 54% Calm Calm -- 27.94 in946.2 mb 0.00 in0.0 mm 0.00 in/hr0.0 mm/hr 0.00 in0.0 mm
06:16 AM 55.9°F13.3°C 39.6°F4.2°C 54% Calm Calm -- 27.94 in946.2 mb 0.00 in0.0 mm 0.00 in/hr0.0 mm/hr 0.00 in0.0 mm
06:11 AM 55.9°F13.3°C 39.5°F4.2°C 54% Calm Calm -- 27.94 in946.2 mb 0.00 in0.0 mm 0.00 in/hr0.0 mm/hr 0.00 in0.0 mm
06:06 AM 56.1°F13.4°C 39.5°F4.2°C 54% Calm Calm -- 27.94 in946.2 mb 0.00 in0.0 mm 0.00 in/hr0.0 mm/hr 0.00 in0.0 mm
06:01 AM 56.1°F13.4°C 39.4°F4.1°C 53% Calm Calm -- 27.94 in946.2 mb 0.00 in0.0 mm 0.00 in/hr0.0 mm/hr 0.00 in0.0 mm
05:56 AM 56.1°F13.4°C 39.2°F4.0°C 53% Calm Calm -- 27.94 in946.2 mb 0.00 in0.0 mm 0.00 in/hr0.0 mm/hr 0.00 in0.0 mm
05:51 AM 56.3°F13.5°C 39.4°F4.1°C 53% Calm Calm -- 27.94 in946.2 mb 0.00 in0.0 mm 0.00 in/hr0.0 mm/hr 0.00 in0.0 mm
05:46 AM 56.3°F13.5°C 39.4°F4.1°C 53% Calm Calm -- 27.94 in946.2 mb 0.00 in0.0 mm 0.00 in/hr0.0 mm/hr 0.00 in0.0 mm
05:41 AM 56.3°F13.5°C 39.4°F4.1°C 53% Calm Calm -- 27.94 in946.2 mb 0.00 in0.0 mm 0.00 in/hr0.0 mm/hr 0.00 in0.0 mm
05:36 AM 56.3°F13.5°C 39.4°F4.1°C 53% Calm Calm -- 27.94 in946.2 mb 0.00 in0.0 mm 0.00 in/hr0.0 mm/hr 0.00 in0.0 mm
05:31 AM 56.5°F13.6°C 39.6°F4.2°C 53% Calm Calm -- 27.94 in946.2 mb 0.00 in0.0 mm 0.00 in/hr0.0 mm/hr 0.00 in0.0 mm
05:26 AM 56.5°F13.6°C 39.6°F4.2°C 53% Calm Calm -- 27.94 in946.2 mb 0.00 in0.0 mm 0.00 in/hr0.0 mm/hr 0.00 in0.0 mm
05:21 AM 56.6°F13.7°C 39.7°F4.3°C 53% Calm Calm -- 27.94 in946.2 mb 0.00 in0.0 mm 0.00 in/hr0.0 mm/hr 0.00 in0.0 mm
05:16 AM 56.7°F13.7°C 39.7°F4.3°C 53% Calm Calm -- 27.94 in946.2 mb 0.00 in0.0 mm 0.00 in/hr0.0 mm/hr 0.00 in0.0 mm
05:11 AM 56.7°F13.7°C 39.7°F4.3°C 53% Calm Calm -- 27.94 in946.2 mb 0.00 in0.0 mm 0.00 in/hr0.0 mm/hr 0.00 in0.0 mm
05:06 AM 56.8°F13.8°C 39.8°F4.3°C 53% Calm Calm -- 27.94 in946.2 mb 0.00 in0.0 mm 0.00 in/hr0.0 mm/hr 0.00 in0.0 mm
05:01 AM 56.8°F13.8°C 39.8°F4.3°C 53% Calm Calm -- 27.94 in946.2 mb 0.00 in0.0 mm 0.00 in/hr0.0 mm/hr 0.00 in0.0 mm
04:56 AM 56.8°F13.8°C 39.5°F4.2°C 52% Calm Calm -- 27.94 in946.2 mb 0.00 in0.0 mm 0.00 in/hr0.0 mm/hr 0.00 in0.0 mm
04:51 AM 56.9°F13.8°C 39.4°F4.1°C 52% Calm Calm -- 27.94 in946.2 mb 0.00 in0.0 mm 0.00 in/hr0.0 mm/hr 0.00 in0.0 mm
04:46 AM 57.0°F13.9°C 39.6°F4.2°C 52% Calm Calm -- 27.94 in946.2 mb 0.00 in0.0 mm 0.00 in/hr0.0 mm/hr 0.00 in0.0 mm
04:41 AM 57.0°F13.9°C 39.6°F4.2°C 52% Calm Calm -- 27.94 in946.2 mb 0.00 in0.0 mm 0.00 in/hr0.0 mm/hr 0.00 in0.0 mm
04:36 AM 57.2°F14.0°C 39.7°F4.3°C 52% Calm Calm -- 27.94 in946.2 mb 0.00 in0.0 mm 0.00 in/hr0.0 mm/hr 0.00 in0.0 mm
04:31 AM 57.2°F14.0°C 39.8°F4.3°C 52% Calm Calm -- 27.94 in946.2 mb 0.00 in0.0 mm 0.00 in/hr0.0 mm/hr 0.00 in0.0 mm
04:26 AM 57.2°F14.0°C 39.8°F4.3°C 52% Calm Calm -- 27.94 in946.2 mb 0.00 in0.0 mm 0.00 in/hr0.0 mm/hr 0.00 in0.0 mm
04:21 AM 57.3°F14.1°C 39.5°F4.2°C 52% Calm Calm -- 27.94 in946.2 mb 0.00 in0.0 mm 0.00 in/hr0.0 mm/hr 0.00 in0.0 mm
04:16 AM 57.4°F14.1°C 39.4°F4.1°C 51% Calm Calm -- 27.94 in946.2 mb 0.00 in0.0 mm 0.00 in/hr0.0 mm/hr 0.00 in0.0 mm
04:11 AM 57.5°F14.2°C 39.6°F4.2°C 51% Calm Calm -- 27.94 in946.2 mb 0.00 in0.0 mm 0.00 in/hr0.0 mm/hr 0.00 in0.0 mm
04:06 AM 57.6°F14.2°C 39.6°F4.2°C 51% Calm Calm -- 27.94 in946.2 mb 0.00 in0.0 mm 0.00 in/hr0.0 mm/hr 0.00 in0.0 mm
04:01 AM 57.6°F14.2°C 39.6°F4.2°C 51% Calm Calm -- 27.94 in946.2 mb 0.00 in0.0 mm 0.00 in/hr0.0 mm/hr 0.00 in0.0 mm
03:56 AM 57.7°F14.3°C 39.8°F4.3°C 51% Calm Calm -- 27.96 in946.8 mb 0.00 in0.0 mm 0.00 in/hr0.0 mm/hr 0.00 in0.0 mm
03:51 AM 57.8°F14.3°C 39.8°F4.3°C 51% Calm Calm -- 27.96 in946.8 mb 0.00 in0.0 mm 0.00 in/hr0.0 mm/hr 0.00 in0.0 mm
03:46 AM 57.9°F14.4°C 39.9°F4.4°C 51% Calm Calm -- 27.96 in946.8 mb 0.00 in0.0 mm 0.00 in/hr0.0 mm/hr 0.00 in0.0 mm
03:41 AM 57.9°F14.4°C 39.9°F4.4°C 51% Calm Calm -- 27.96 in946.8 mb 0.00 in0.0 mm 0.00 in/hr0.0 mm/hr 0.00 in0.0 mm
03:36 AM 58.0°F14.4°C 40.0°F4.4°C 51% Calm Calm -- 27.96 in946.8 mb 0.00 in0.0 mm 0.00 in/hr0.0 mm/hr 0.00 in0.0 mm
03:31 AM 58.1°F14.5°C 40.1°F4.5°C 51% Calm Calm -- 27.96 in946.8 mb 0.00 in0.0 mm 0.00 in/hr0.0 mm/hr 0.00 in0.0 mm
03:26 AM 58.1°F14.5°C 40.1°F4.5°C 51% Calm Calm -- 27.96 in946.8 mb 0.00 in0.0 mm 0.00 in/hr0.0 mm/hr 0.00 in0.0 mm
03:21 AM 58.3°F14.6°C 40.2°F4.6°C 51% Calm Calm -- 27.96 in946.8 mb 0.00 in0.0 mm 0.00 in/hr0.0 mm/hr 0.00 in0.0 mm
03:16 AM 58.3°F14.6°C 39.9°F4.4°C 51% Calm Calm -- 27.96 in946.8 mb 0.00 in0.0 mm 0.00 in/hr0.0 mm/hr 0.00 in0.0 mm
03:11 AM 58.5°F14.7°C 39.9°F4.4°C 50% Calm Calm -- 27.96 in946.8 mb 0.00 in0.0 mm 0.00 in/hr0.0 mm/hr 0.00 in0.0 mm
03:06 AM 58.5°F14.7°C 39.9°F4.4°C 50% Calm Calm -- -338605.1 mb 0.00 in0.0 mm 0.00 in/hr0.0 mm/hr 0.00 in0.0 mm
03:01 AM 58.6°F14.8°C 40.1°F4.5°C 50% Calm Calm -- 27.96 in946.8 mb 0.00 in0.0 mm 0.00 in/hr0.0 mm/hr 0.00 in0.0 mm
02:56 AM 58.7°F14.8°C 40.1°F4.5°C 50% Calm Calm -- -338605.1 mb 0.00 in0.0 mm 0.00 in/hr0.0 mm/hr 0.00 in0.0 mm
02:52 AM 58.8°F14.9°C 40.2°F4.6°C 50% - N16091.8 kmh N -- -338605.1 mb 0.00 in0.0 mm 0.00 in/hr0.0 mm/hr 0.00 in0.0 mm
02:43 AM 58.9°F14.9°C 40.3°F4.6°C 50% Calm Calm -- -338605.1 mb 0.00 in0.0 mm 0.00 in/hr0.0 mm/hr 0.00 in0.0 mm
02:38 AM 59.0°F15.0°C 40.4°F4.7°C 50% Calm Calm -- 27.96 in946.8 mb 0.00 in0.0 mm 0.00 in/hr0.0 mm/hr 0.00 in0.0 mm
02:33 AM 59.2°F15.1°C 40.4°F4.7°C 50% Calm Calm -- 27.96 in946.8 mb 0.00 in0.0 mm 0.00 in/hr0.0 mm/hr 0.00 in0.0 mm
02:28 AM 59.2°F15.1°C 40.1°F4.5°C 49% Calm Calm -- 27.96 in946.8 mb 0.00 in0.0 mm 0.00 in/hr0.0 mm/hr 0.00 in0.0 mm
02:23 AM 59.3°F15.2°C 40.1°F4.5°C 49% Calm Calm -- 27.96 in946.8 mb 0.00 in0.0 mm 0.00 in/hr0.0 mm/hr 0.00 in0.0 mm
02:18 AM 59.4°F15.2°C 40.2°F4.6°C 49% Calm Calm -- 27.96 in946.8 mb 0.00 in0.0 mm 0.00 in/hr0.0 mm/hr 0.00 in0.0 mm
02:13 AM 59.4°F15.2°C 40.3°F4.6°C 49% Calm Calm -- 27.99 in947.9 mb 0.00 in0.0 mm 0.00 in/hr0.0 mm/hr 0.00 in0.0 mm
02:08 AM 59.5°F15.3°C 40.4°F4.7°C 49% Calm Calm -- 27.99 in947.9 mb 0.00 in0.0 mm 0.00 in/hr0.0 mm/hr 0.00 in0.0 mm
02:03 AM 59.7°F15.4°C 40.5°F4.7°C 49% Calm Calm -- 27.99 in947.9 mb 0.00 in0.0 mm 0.00 in/hr0.0 mm/hr 0.00 in0.0 mm
01:56 AM 59.7°F15.4°C 40.6°F4.8°C 49% Calm Calm -- 27.96 in946.8 mb 0.00 in0.0 mm 0.00 in/hr0.0 mm/hr 0.00 in0.0 mm
01:51 AM 59.9°F15.5°C 40.7°F4.8°C 49% Calm Calm -- 27.96 in946.8 mb 0.00 in0.0 mm 0.00 in/hr0.0 mm/hr 0.00 in0.0 mm
01:46 AM 60.0°F15.6°C 40.8°F4.9°C 49% Calm Calm -- -338605.1 mb 0.00 in0.0 mm 0.00 in/hr0.0 mm/hr 0.00 in0.0 mm
01:41 AM 60.1°F15.6°C 40.9°F4.9°C 49% Calm Calm -- -338605.1 mb 0.00 in0.0 mm 0.00 in/hr0.0 mm/hr 0.00 in0.0 mm
01:37 AM 60.2°F15.7°C 41.0°F5.0°C 49% Calm Calm -- -338605.1 mb 0.00 in0.0 mm 0.00 in/hr0.0 mm/hr 0.00 in0.0 mm
01:26 AM 60.4°F15.8°C 40.9°F4.9°C 49% Calm Calm -- 27.96 in946.8 mb 0.00 in0.0 mm 0.00 in/hr0.0 mm/hr 0.00 in0.0 mm
01:21 AM 60.4°F15.8°C 40.7°F4.8°C 48% Calm Calm -- -338605.1 mb 0.00 in0.0 mm 0.00 in/hr0.0 mm/hr 0.00 in0.0 mm
01:16 AM 60.6°F15.9°C 40.8°F4.9°C 48% Calm Calm -- 27.96 in946.8 mb 0.00 in0.0 mm 0.00 in/hr0.0 mm/hr 0.00 in0.0 mm
01:11 AM 60.7°F15.9°C 41.0°F5.0°C 48% Calm Calm -- 27.99 in947.9 mb 0.00 in0.0 mm 0.00 in/hr0.0 mm/hr 0.00 in0.0 mm
01:06 AM 60.9°F16.1°C 41.1°F5.1°C 48% Calm Calm -- 27.99 in947.9 mb 0.00 in0.0 mm 0.00 in/hr0.0 mm/hr 0.00 in0.0 mm
01:01 AM 61.0°F16.1°C 41.2°F5.1°C 48% Calm Calm -- -338605.1 mb 0.00 in0.0 mm 0.00 in/hr0.0 mm/hr 0.00 in0.0 mm
12:56 AM 61.1°F16.2°C 41.3°F5.2°C 48% Calm Calm -- 27.96 in946.8 mb 0.00 in0.0 mm 0.00 in/hr0.0 mm/hr 0.00 in0.0 mm
12:51 AM 61.2°F16.2°C 41.4°F5.2°C 48% Calm Calm -- 27.96 in946.8 mb 0.00 in0.0 mm 0.00 in/hr0.0 mm/hr 0.00 in0.0 mm
12:46 AM 61.4°F16.3°C 41.3°F5.2°C 48% Calm Calm -- 27.96 in946.8 mb 0.00 in0.0 mm 0.00 in/hr0.0 mm/hr 0.00 in0.0 mm
12:41 AM 61.5°F16.4°C 41.1°F5.1°C 47% Calm Calm -- -338605.1 mb 0.00 in0.0 mm 0.00 in/hr0.0 mm/hr 0.00 in0.0 mm
12:36 AM 61.7°F16.5°C 41.2°F5.1°C 47% Calm Calm -- 27.99 in947.9 mb 0.00 in0.0 mm 0.00 in/hr0.0 mm/hr 0.00 in0.0 mm
12:31 AM 61.8°F16.6°C 41.4°F5.2°C 47% Calm Calm -- 27.99 in947.9 mb 0.00 in0.0 mm 0.00 in/hr0.0 mm/hr 0.00 in0.0 mm
12:26 AM 61.9°F16.6°C 41.5°F5.3°C 47% Calm Calm -- 27.99 in947.9 mb 0.00 in0.0 mm 0.00 in/hr0.0 mm/hr 0.00 in0.0 mm
12:22 AM 61.9°F16.6°C 41.5°F5.3°C 47% Calm Calm -- 27.99 in947.9 mb 0.00 in0.0 mm 0.00 in/hr0.0 mm/hr 0.00 in0.0 mm
12:16 AM 62.2°F16.8°C 41.7°F5.4°C 47% Calm Calm -- 27.99 in947.9 mb 0.00 in0.0 mm 0.00 in/hr0.0 mm/hr 0.00 in0.0 mm
12:11 AM 62.3°F16.8°C 41.8°F5.4°C 47% Calm Calm -- 27.94 in946.2 mb 0.00 in0.0 mm 0.00 in/hr0.0 mm/hr 0.00 in0.0 mm
12:06 AM 62.4°F16.9°C 41.9°F5.5°C 47% Calm Calm -- 27.94 in946.2 mb 0.00 in0.0 mm 0.00 in/hr0.0 mm/hr 0.00 in0.0 mm
12:02 AM 62.6°F17.0°C 42.1°F5.6°C 47% Calm Calm -- -338605.1 mb 0.00 in0.0 mm 0.00 in/hr0.0 mm/hr 0.00 in0.0 mm